createdAt,value
2023-05-07T03:49:18.299Z,11.71
2023-05-07T03:50:18.289Z,12.27
2023-05-07T03:51:18.277Z,11.22
2023-05-07T03:52:18.273Z,11.71
2023-05-07T03:53:18.261Z,11.63
2023-05-07T03:54:18.248Z,11.63
2023-05-07T03:55:18.239Z,11.06
2023-05-07T03:56:19.695Z,11.47
2023-05-07T03:57:18.413Z,12.27
2023-05-07T03:58:18.505Z,11.79
2023-05-07T03:59:18.192Z,11.71
2023-05-07T04:00:18.383Z,11.79
2023-05-07T04:01:18.184Z,11.94
2023-05-07T04:02:18.178Z,12.68
2023-05-07T04:03:18.292Z,11.86
2023-05-07T04:04:18.193Z,13.15
2023-05-07T04:05:18.129Z,11.71
2023-05-07T04:06:18.319Z,12.27
2023-05-07T04:07:18.109Z,12.27
2023-05-07T04:08:18.095Z,12.60
2023-05-07T04:09:18.087Z,11.31
2023-05-07T04:10:18.073Z,13.07
2023-05-07T04:11:19.415Z,11.63
2023-05-07T04:12:18.054Z,10.73
2023-05-07T04:13:18.119Z,12.84
2023-05-07T04:14:18.179Z,10.97
2023-05-07T04:15:18.022Z,12.18
2023-05-07T04:16:18.035Z,12.35
2023-05-07T04:17:18.000Z,12.92
2023-05-07T04:18:17.989Z,11.63
2023-05-07T04:19:17.977Z,11.63
2023-05-07T04:20:17.962Z,11.06
2023-05-07T04:21:17.955Z,11.71
2023-05-07T04:22:17.984Z,11.86
2023-05-07T04:23:17.958Z,12.18
2023-05-07T04:24:17.932Z,12.27
2023-05-07T04:25:17.913Z,13.47
2023-05-07T04:26:17.908Z,10.73
2023-05-07T04:27:17.893Z,12.60
2023-05-07T04:28:17.882Z,10.65
2023-05-07T04:29:17.869Z,12.35
2023-05-07T04:30:17.883Z,12.43
2023-05-07T04:31:17.918Z,11.86
2023-05-07T04:32:17.894Z,12.18
2023-05-07T04:33:17.850Z,12.51
2023-05-07T04:34:17.816Z,12.27
2023-05-07T04:35:17.801Z,10.89
2023-05-07T04:36:17.800Z,11.39
2023-05-07T04:37:17.779Z,11.14
2023-05-07T04:38:17.769Z,12.68
2023-05-07T04:39:17.763Z,11.71
2023-05-07T04:40:17.746Z,11.63
2023-05-07T04:41:17.779Z,12.51
2023-05-07T04:42:17.931Z,11.06
2023-05-07T04:43:17.716Z,12.92
2023-05-07T04:44:17.703Z,11.63
2023-05-07T04:45:17.691Z,12.27
2023-05-07T04:46:17.832Z,11.39
2023-05-07T04:47:17.675Z,11.86
2023-05-07T04:48:17.862Z,12.35
2023-05-07T04:49:17.651Z,11.55
2023-05-07T04:50:17.641Z,11.71
2023-05-07T04:51:17.631Z,12.02
2023-05-07T04:52:17.618Z,11.79
2023-05-07T04:53:17.615Z,11.86
2023-05-07T04:54:17.595Z,11.71
2023-05-07T04:55:17.601Z,11.94
2023-05-07T04:56:17.575Z,11.71
2023-05-07T04:57:17.567Z,12.02
2023-05-07T04:58:19.302Z,12.68
2023-05-07T04:59:17.546Z,12.68
2023-05-07T05:00:17.569Z,12.51
2023-05-07T05:01:51.632Z,10.81
2023-05-07T05:02:51.532Z,11.71
2023-05-07T05:03:51.521Z,13.31
2023-05-07T05:04:51.418Z,10.34
2023-05-07T05:05:51.408Z,12.10
2023-05-07T05:06:51.396Z,11.22
2023-05-07T05:07:51.395Z,11.86
2023-05-07T05:08:51.379Z,10.73
2023-05-07T05:09:51.363Z,11.39
2023-05-07T05:10:51.354Z,12.68
2023-05-07T05:11:51.343Z,10.97
2023-05-07T05:12:51.420Z,12.35
2023-05-07T05:13:51.324Z,12.92
2023-05-07T05:14:51.313Z,11.63
2023-05-07T05:15:51.306Z,11.94
2023-05-07T05:16:51.294Z,12.18
2023-05-07T05:17:51.443Z,12.10
2023-05-07T05:18:51.267Z,11.86
2023-05-07T05:19:51.265Z,12.02
2023-05-07T05:20:51.248Z,12.35
2023-05-07T05:21:51.233Z,11.79
2023-05-07T05:22:51.226Z,11.31
2023-05-07T05:23:51.225Z,11.86
2023-05-07T05:24:51.203Z,12.10
2023-05-07T05:25:51.195Z,13.23
2023-05-07T05:26:51.187Z,11.94
2023-05-07T05:27:51.381Z,11.47
2023-05-07T05:28:51.157Z,12.92
2023-05-07T05:29:51.152Z,11.47
2023-05-07T05:30:51.138Z,12.02
2023-05-07T05:31:51.210Z,12.76
2023-05-07T05:32:51.230Z,12.35
2023-05-07T05:33:51.138Z,12.43
2023-05-07T05:34:51.095Z,12.35
2023-05-07T05:35:51.093Z,12.76
2023-05-07T05:36:51.082Z,13.15
2023-05-07T05:37:51.071Z,9.77
2023-05-07T05:38:51.059Z,12.51
2023-05-07T05:39:51.048Z,11.22
2023-05-07T05:40:51.040Z,11.94
2023-05-07T05:41:51.025Z,11.14
2023-05-07T05:42:51.224Z,11.39
2023-05-07T05:43:51.003Z,12.51
2023-05-07T05:44:50.992Z,12.18
2023-05-07T05:45:50.978Z,12.02
2023-05-07T05:46:51.176Z,11.94
2023-05-07T05:47:51.044Z,10.50
2023-05-07T05:48:52.470Z,12.68
2023-05-07T05:49:50.939Z,11.94
2023-05-07T05:50:50.927Z,11.55
2023-05-07T05:51:50.915Z,11.39
2023-05-07T05:52:50.904Z,11.31
2023-05-07T05:53:50.901Z,11.55
2023-05-07T05:54:50.881Z,10.73
2023-05-07T05:55:50.872Z,11.63
2023-05-07T05:56:50.861Z,11.94
2023-05-07T05:57:50.852Z,11.79
2023-05-07T05:58:50.918Z,12.02
2023-05-07T05:59:50.838Z,12.27
2023-05-07T06:00:50.818Z,12.51
2023-05-07T06:01:50.889Z,11.86
2023-05-07T06:02:50.843Z,13.47
2023-05-07T06:03:50.794Z,12.76
2023-05-07T06:04:50.888Z,13.31
2023-05-07T06:05:50.768Z,12.10
2023-05-07T06:06:50.758Z,13.00
2023-05-07T06:07:50.746Z,12.68
2023-05-07T06:08:50.739Z,12.10
2023-05-07T06:09:50.745Z,12.43
2023-05-07T06:10:50.718Z,10.89
2023-05-07T06:11:50.705Z,12.84
2023-05-07T06:12:50.715Z,12.35
2023-05-07T06:13:50.683Z,12.43
2023-05-07T06:14:50.680Z,11.63
2023-05-07T06:15:50.662Z,13.47
2023-05-07T06:16:50.674Z,11.47
2023-05-07T06:17:50.675Z,12.02
2023-05-07T06:18:50.630Z,12.76
2023-05-07T06:19:50.628Z,11.79
2023-05-07T06:20:50.763Z,12.35
2023-05-07T06:21:50.601Z,11.71
2023-05-07T06:22:50.585Z,13.23
2023-05-07T06:23:50.579Z,13.15
2023-05-07T06:24:50.567Z,12.76
2023-05-07T06:25:50.554Z,11.63
2023-05-07T06:26:50.544Z,13.23
2023-05-07T06:27:50.740Z,12.18
2023-05-07T06:28:50.527Z,13.56
2023-05-07T06:29:50.520Z,12.76
2023-05-07T06:30:50.512Z,11.47
2023-05-07T06:31:50.532Z,12.02
2023-05-07T06:32:50.563Z,12.35
2023-05-07T06:33:50.470Z,12.51
2023-05-07T06:34:50.469Z,12.43
2023-05-07T06:35:50.455Z,12.84
2023-05-07T06:36:50.531Z,12.35
2023-05-07T06:37:50.639Z,13.07
2023-05-07T06:38:50.435Z,12.02
2023-05-07T06:39:50.418Z,11.86
2023-05-07T06:40:50.402Z,13.00
2023-05-07T06:41:50.391Z,12.76
2023-05-07T06:42:50.381Z,12.60
2023-05-07T06:43:50.375Z,12.27
2023-05-07T06:44:50.357Z,12.02
2023-05-07T06:45:50.383Z,11.94
2023-05-07T06:46:50.334Z,12.43
2023-05-07T06:47:50.379Z,12.43
2023-05-07T06:48:50.318Z,11.79
2023-05-07T06:49:50.306Z,12.43
2023-05-07T06:50:50.293Z,12.43
2023-05-07T06:51:50.288Z,13.00
2023-05-07T06:52:50.404Z,12.76
2023-05-07T06:53:50.263Z,12.10
2023-05-07T06:54:50.252Z,13.64
2023-05-07T06:55:50.244Z,12.35
2023-05-07T06:56:50.229Z,12.18
2023-05-07T06:57:50.217Z,12.60
2023-05-07T06:58:50.211Z,13.23
2023-05-07T06:59:50.195Z,12.92
2023-05-07T07:00:50.190Z,12.27
2023-05-07T07:01:50.272Z,12.18
2023-05-07T07:02:50.218Z,13.31
2023-05-07T07:03:50.157Z,13.56
2023-05-07T07:04:50.216Z,13.47
2023-05-07T07:05:50.133Z,12.35
2023-05-07T07:06:50.121Z,12.92
2023-05-07T07:07:50.112Z,12.68
2023-05-07T07:08:50.190Z,12.27
2023-05-07T07:09:50.090Z,13.07
2023-05-07T07:10:50.281Z,13.00
2023-05-07T07:11:50.068Z,12.60
2023-05-07T07:12:50.104Z,12.76
2023-05-07T07:13:50.048Z,11.94
2023-05-07T07:14:50.041Z,12.43
2023-05-07T07:15:50.051Z,13.47
2023-05-07T07:16:50.019Z,12.60
2023-05-07T07:17:50.040Z,13.39
2023-05-07T07:18:49.996Z,11.94
2023-05-07T07:19:49.987Z,13.39
2023-05-07T07:20:49.983Z,12.76
2023-05-07T07:21:49.955Z,10.65
2023-05-07T07:22:49.951Z,11.86
2023-05-07T07:23:49.940Z,12.68
2023-05-07T07:24:50.020Z,13.23
2023-05-07T07:25:49.917Z,12.84
2023-05-07T07:26:49.905Z,12.43
2023-05-07T07:27:49.896Z,13.39
2023-05-07T07:28:49.888Z,13.23
2023-05-07T07:29:49.894Z,12.43
2023-05-07T07:30:49.867Z,13.23
2023-05-07T07:31:49.997Z,12.68
2023-05-07T07:32:49.902Z,12.18
2023-05-07T07:33:51.639Z,13.07
2023-05-07T07:34:49.820Z,13.07
2023-05-07T07:35:49.808Z,12.84
2023-05-07T07:36:49.799Z,12.27
2023-05-07T07:37:49.792Z,12.92
2023-05-07T07:38:49.779Z,13.15
2023-05-07T07:39:49.770Z,13.39
2023-05-07T07:40:49.776Z,13.00
2023-05-07T07:41:49.746Z,13.00
2023-05-07T07:42:49.735Z,12.60
2023-05-07T07:43:50.023Z,13.31
2023-05-07T07:44:49.715Z,13.39
2023-05-07T07:45:49.707Z,12.43
2023-05-07T07:46:49.744Z,13.07
2023-05-07T07:47:49.703Z,13.15
2023-05-07T07:48:49.675Z,13.72
2023-05-07T07:49:49.662Z,12.92
2023-05-07T07:50:49.654Z,13.47
2023-05-07T07:51:49.645Z,13.72
2023-05-07T07:52:49.658Z,12.10
2023-05-07T07:53:49.622Z,13.31
2023-05-07T07:54:49.607Z,12.84
2023-05-07T07:55:49.600Z,13.15
2023-05-07T07:56:49.680Z,13.31
2023-05-07T07:57:49.582Z,13.39
2023-05-07T07:58:49.570Z,13.23
2023-05-07T07:59:49.761Z,13.07
2023-05-07T08:00:49.549Z,13.72
2023-05-07T08:01:49.583Z,12.76
2023-05-07T08:02:49.686Z,13.07
2023-05-07T08:03:49.609Z,13.15
2023-05-07T08:04:49.511Z,13.07
2023-05-07T08:05:49.495Z,12.84
2023-05-07T08:06:49.485Z,13.80
2023-05-07T08:07:49.472Z,13.72
2023-05-07T08:08:49.467Z,12.10
2023-05-07T08:09:49.454Z,13.07
2023-05-07T08:10:49.443Z,13.23
2023-05-07T08:11:49.438Z,13.56
2023-05-07T08:12:49.465Z,12.68
2023-05-07T08:13:49.416Z,13.23
2023-05-07T08:14:49.404Z,13.56
2023-05-07T08:15:49.397Z,14.21
2023-05-07T08:16:49.400Z,13.00
2023-05-07T08:17:49.494Z,13.47
2023-05-07T08:18:49.362Z,13.72
2023-05-07T08:19:49.352Z,13.39
2023-05-07T08:20:49.340Z,13.72
2023-05-07T08:21:49.348Z,13.80
2023-05-07T08:22:49.545Z,13.31
2023-05-07T08:23:49.309Z,13.88
2023-05-07T08:24:49.301Z,13.31
2023-05-07T08:25:49.309Z,12.27
2023-05-07T08:26:49.283Z,13.96
2023-05-07T08:27:49.273Z,13.15
2023-05-07T08:28:49.373Z,13.39
2023-05-07T08:29:49.249Z,13.88
2023-05-07T08:30:49.469Z,13.47
2023-05-07T08:31:49.232Z,12.60
2023-05-07T08:32:49.275Z,13.88
2023-05-07T08:33:49.206Z,13.56
2023-05-07T08:34:49.203Z,13.56
2023-05-07T08:35:49.186Z,14.05
2023-05-07T08:36:49.177Z,14.28
2023-05-07T08:37:49.191Z,12.76
2023-05-07T08:38:49.166Z,14.13
2023-05-07T08:39:49.145Z,12.18
2023-05-07T08:40:49.142Z,13.96
2023-05-07T08:41:49.126Z,13.72
2023-05-07T08:42:49.120Z,13.31
2023-05-07T08:43:49.103Z,13.56
2023-05-07T08:44:49.115Z,13.64
2023-05-07T08:45:49.147Z,13.72
2023-05-07T08:46:49.323Z,13.31
2023-05-07T08:47:49.141Z,13.64
2023-05-07T08:48:49.051Z,13.80
2023-05-07T08:49:49.044Z,13.15
2023-05-07T08:50:49.039Z,12.60
2023-05-07T08:51:49.015Z,13.88
2023-05-07T08:52:49.013Z,13.56
2023-05-07T08:53:48.994Z,13.56
2023-05-07T08:54:48.993Z,13.88
2023-05-07T08:55:48.992Z,13.39
2023-05-07T08:56:48.970Z,13.96
2023-05-07T08:57:48.954Z,13.47
2023-05-07T08:58:48.948Z,14.28
2023-05-07T08:59:48.924Z,13.47
2023-05-07T09:00:49.015Z,13.47
2023-05-07T09:01:49.146Z,13.88
2023-05-07T09:02:48.958Z,12.76
2023-05-07T09:03:48.958Z,13.64
2023-05-07T09:04:48.880Z,13.47
2023-05-07T09:05:48.869Z,13.23
2023-05-07T09:06:48.855Z,14.21
2023-05-07T09:07:48.845Z,14.13
2023-05-07T09:08:48.832Z,13.88
2023-05-07T09:09:48.821Z,13.96
2023-05-07T09:10:48.806Z,14.28
2023-05-07T09:11:48.799Z,13.56
2023-05-07T09:12:48.869Z,13.56
2023-05-07T09:13:48.778Z,13.96
2023-05-07T09:14:48.767Z,14.28
2023-05-07T09:15:48.767Z,13.96
2023-05-07T09:16:48.795Z,14.28
2023-05-07T09:17:48.741Z,14.05
2023-05-07T09:18:48.728Z,13.47
2023-05-07T09:19:48.714Z,14.05
2023-05-07T09:20:48.704Z,13.07
2023-05-07T09:21:48.710Z,14.28
2023-05-07T09:22:48.685Z,13.00
2023-05-07T09:23:48.671Z,13.39
2023-05-07T09:24:48.671Z,13.96
2023-05-07T09:25:48.658Z,14.05
2023-05-07T09:26:48.646Z,13.96
2023-05-07T09:27:48.632Z,14.21
2023-05-07T09:28:48.624Z,13.80
2023-05-07T09:29:48.611Z,14.13
2023-05-07T09:30:48.602Z,14.13
2023-05-07T09:31:48.641Z,14.13
2023-05-07T09:32:48.611Z,13.23
2023-05-07T09:33:48.599Z,13.80
2023-05-07T09:34:48.561Z,14.21
2023-05-07T09:35:48.558Z,13.88
2023-05-07T09:36:48.537Z,14.44
2023-05-07T09:37:48.528Z,14.21
2023-05-07T09:38:48.531Z,13.72
2023-05-07T09:39:48.518Z,13.31
2023-05-07T09:40:48.506Z,13.80
2023-05-07T09:41:48.489Z,13.80
2023-05-07T09:42:48.485Z,14.21
2023-05-07T09:43:48.478Z,13.96
2023-05-07T09:44:48.470Z,14.05
2023-05-07T09:45:48.491Z,13.80
2023-05-07T09:46:48.440Z,14.36
2023-05-07T09:47:48.460Z,14.44
2023-05-07T09:48:48.702Z,14.44
2023-05-07T09:49:48.407Z,14.60
2023-05-07T09:50:48.400Z,13.72
2023-05-07T09:51:49.892Z,14.21
2023-05-07T09:52:48.379Z,13.15
2023-05-07T09:53:48.367Z,14.52
2023-05-07T09:54:48.369Z,14.85
2023-05-07T09:55:48.363Z,14.60
2023-05-07T09:56:48.337Z,14.52
2023-05-07T09:57:48.329Z,14.60
2023-05-07T09:58:48.520Z,14.68
2023-05-07T09:59:48.341Z,14.28
2023-05-07T10:00:48.311Z,14.93
2023-05-07T10:01:48.286Z,13.96
2023-05-07T10:02:48.333Z,14.28
2023-05-07T10:03:48.486Z,14.93
2023-05-07T10:04:48.362Z,13.31
2023-05-07T10:05:48.247Z,14.77
2023-05-07T10:06:48.249Z,14.85
2023-05-07T10:07:48.225Z,14.77
2023-05-07T10:08:48.220Z,14.93
2023-05-07T10:09:49.028Z,14.85
2023-05-07T10:10:48.203Z,14.77
2023-05-07T10:11:48.190Z,14.60
2023-05-07T10:12:48.208Z,14.21
2023-05-07T10:13:48.167Z,14.21
2023-05-07T10:14:48.162Z,13.80
2023-05-07T10:15:48.149Z,14.21
2023-05-07T10:16:48.140Z,15.25
2023-05-07T10:17:48.335Z,14.52
2023-05-07T10:18:48.175Z,13.96
2023-05-07T10:19:48.111Z,15.01
2023-05-07T10:20:48.120Z,15.09
2023-05-07T10:21:48.096Z,15.25
2023-05-07T10:22:48.094Z,14.52
2023-05-07T10:23:48.074Z,14.52
2023-05-07T10:24:48.064Z,15.40
2023-05-07T10:25:48.055Z,14.36
2023-05-07T10:26:48.046Z,14.77
2023-05-07T10:27:48.035Z,14.68
2023-05-07T10:28:49.626Z,14.21
2023-05-07T10:29:48.015Z,15.09
2023-05-07T10:30:48.042Z,14.52
2023-05-07T10:31:48.002Z,14.93
2023-05-07T10:32:48.062Z,15.17
2023-05-07T10:33:47.976Z,14.93
2023-05-07T10:34:47.971Z,14.77
2023-05-07T10:35:47.957Z,14.93
2023-05-07T10:36:48.040Z,15.32
2023-05-07T10:37:47.947Z,14.93
2023-05-07T10:38:47.927Z,14.68
2023-05-07T10:39:47.916Z,15.17
2023-05-07T10:40:48.670Z,15.09
2023-05-07T10:41:47.900Z,14.60
2023-05-07T10:42:47.894Z,15.57
2023-05-07T10:43:47.970Z,15.17
2023-05-07T10:44:47.923Z,15.40
2023-05-07T10:45:47.947Z,15.32
2023-05-07T10:46:47.902Z,15.25
2023-05-07T10:47:47.944Z,14.85
2023-05-07T10:48:47.836Z,13.72
2023-05-07T10:49:47.942Z,14.77
2023-05-07T10:50:48.129Z,15.09
2023-05-07T10:51:47.802Z,15.57
2023-05-07T10:52:47.822Z,15.01
2023-05-07T10:53:47.855Z,15.57
2023-05-07T10:54:47.834Z,15.32
2023-05-07T10:55:47.891Z,14.68
2023-05-07T10:56:47.846Z,15.09
2023-05-07T10:57:47.950Z,15.32
2023-05-07T10:58:47.817Z,15.40
2023-05-07T10:59:47.856Z,14.68
2023-05-07T11:00:47.787Z,15.73
2023-05-07T11:01:47.814Z,15.09
2023-05-07T11:02:47.727Z,15.09
2023-05-07T11:03:47.689Z,15.09
2023-05-07T11:04:47.704Z,15.32
2023-05-07T11:05:47.723Z,15.32
2023-05-07T11:06:47.658Z,16.13
2023-05-07T11:07:47.646Z,15.50
2023-05-07T11:08:47.730Z,15.25
2023-05-07T11:09:47.626Z,15.50
2023-05-07T11:10:47.619Z,15.73
2023-05-07T11:11:48.440Z,15.32
2023-05-07T11:12:47.624Z,15.17
2023-05-07T11:13:47.600Z,15.50
2023-05-07T11:14:47.576Z,15.17
2023-05-07T11:15:47.612Z,15.73
2023-05-07T11:16:47.673Z,15.97
2023-05-07T11:17:47.617Z,15.40
2023-05-07T11:18:47.535Z,15.65
2023-05-07T11:19:47.522Z,15.57
2023-05-07T11:20:47.531Z,15.50
2023-05-07T11:21:47.502Z,14.77
2023-05-07T11:22:47.499Z,15.40
2023-05-07T11:23:47.484Z,15.89
2023-05-07T11:24:47.571Z,15.32
2023-05-07T11:25:47.472Z,16.13
2023-05-07T11:26:47.459Z,14.93
2023-05-07T11:27:47.451Z,14.77
2023-05-07T11:28:47.436Z,15.40
2023-05-07T11:29:47.421Z,15.50
2023-05-07T11:30:47.421Z,15.25
2023-05-07T11:31:47.489Z,15.50
2023-05-07T11:32:47.418Z,15.25
2023-05-07T11:33:47.387Z,15.65
2023-05-07T11:34:47.386Z,15.65
2023-05-07T11:35:47.367Z,15.81
2023-05-07T11:36:47.361Z,15.50
2023-05-07T11:37:47.352Z,15.57
2023-05-07T11:38:47.347Z,15.25
2023-05-07T11:39:47.330Z,15.57
2023-05-07T11:40:47.411Z,15.09
2023-05-07T11:41:47.312Z,15.65
2023-05-07T11:42:47.294Z,15.57
2023-05-07T11:43:47.290Z,15.65
2023-05-07T11:44:47.550Z,15.57
2023-05-07T11:45:47.288Z,15.89
2023-05-07T11:46:47.267Z,16.37
2023-05-07T11:47:47.292Z,15.97
2023-05-07T11:48:47.240Z,15.57
2023-05-07T11:49:47.239Z,16.13
2023-05-07T11:50:47.220Z,15.97
2023-05-07T11:51:47.210Z,15.65
2023-05-07T11:52:47.200Z,15.97
2023-05-07T11:53:47.190Z,15.97
2023-05-07T11:54:47.181Z,16.29
2023-05-07T11:55:47.168Z,16.21
2023-05-07T11:56:47.227Z,15.73
2023-05-07T11:57:47.150Z,15.97
2023-05-07T11:58:47.148Z,15.81
2023-05-07T11:59:47.129Z,15.65
2023-05-07T12:00:47.120Z,15.89
2023-05-07T12:01:47.129Z,15.89
2023-05-07T12:02:47.279Z,16.29
2023-05-07T12:03:47.599Z,15.89
2023-05-07T12:04:47.160Z,16.21
2023-05-07T12:05:47.078Z,15.81
2023-05-07T12:06:47.062Z,16.21
2023-05-07T12:07:47.050Z,15.97
2023-05-07T12:08:48.324Z,16.70
2023-05-07T12:09:47.033Z,15.89
2023-05-07T12:10:47.020Z,16.70
2023-05-07T12:11:47.013Z,16.37
2023-05-07T12:12:47.066Z,16.21
2023-05-07T12:13:46.993Z,15.73
2023-05-07T12:14:47.004Z,16.54
2023-05-07T12:15:46.972Z,16.29
2023-05-07T12:16:47.022Z,16.45
2023-05-07T12:17:47.038Z,16.45
2023-05-07T12:18:46.950Z,16.21
2023-05-07T12:19:46.928Z,15.81
2023-05-07T12:20:46.923Z,16.54
2023-05-07T12:21:46.915Z,16.05
2023-05-07T12:22:46.910Z,15.73
2023-05-07T12:23:46.892Z,15.81
2023-05-07T12:24:46.945Z,16.29
2023-05-07T12:25:46.872Z,16.13
2023-05-07T12:26:46.868Z,15.89
2023-05-07T12:27:46.857Z,16.13
2023-05-07T12:28:47.072Z,15.65
2023-05-07T12:29:46.833Z,15.81
2023-05-07T12:30:46.825Z,15.97
2023-05-07T12:31:47.044Z,16.37
2023-05-07T12:32:46.858Z,16.45
2023-05-07T12:33:46.798Z,16.21
2023-05-07T12:34:46.791Z,15.89
2023-05-07T12:35:46.783Z,16.78
2023-05-07T12:36:46.772Z,16.54
2023-05-07T12:37:46.757Z,15.97
2023-05-07T12:38:46.748Z,16.21
2023-05-07T12:39:46.739Z,16.62
2023-05-07T12:40:46.728Z,16.37
2023-05-07T12:41:46.720Z,16.29
2023-05-07T12:42:46.911Z,16.21
2023-05-07T12:43:46.706Z,16.45
2023-05-07T12:44:46.710Z,15.57
2023-05-07T12:45:46.674Z,16.37
2023-05-07T12:46:46.703Z,16.13
2023-05-07T12:47:46.831Z,16.29
2023-05-07T12:48:46.661Z,16.62
2023-05-07T12:49:46.638Z,16.13
2023-05-07T12:50:46.626Z,16.45
2023-05-07T12:51:46.619Z,16.37
2023-05-07T12:52:46.612Z,16.70
2023-05-07T12:53:46.596Z,16.29
2023-05-07T12:54:46.585Z,15.89
2023-05-07T12:55:46.582Z,16.37
2023-05-07T12:56:46.565Z,16.05
2023-05-07T12:57:46.557Z,16.62
2023-05-07T12:58:46.541Z,16.21
2023-05-07T12:59:46.536Z,16.70
2023-05-07T13:00:46.545Z,16.21
2023-05-07T13:01:46.564Z,16.29
2023-05-07T13:02:46.681Z,15.89
2023-05-07T13:03:46.554Z,16.29
2023-05-07T13:04:46.490Z,16.29
2023-05-07T13:05:46.475Z,15.89
2023-05-07T13:06:46.460Z,15.73
2023-05-07T13:07:46.447Z,16.45
2023-05-07T13:08:46.433Z,15.89
2023-05-07T13:09:46.428Z,16.13
2023-05-07T13:10:46.420Z,15.65
2023-05-07T13:11:46.408Z,16.05
2023-05-07T13:12:46.402Z,15.65
2023-05-07T13:13:46.390Z,16.21
2023-05-07T13:14:46.375Z,16.45
2023-05-07T13:15:46.533Z,16.29
2023-05-07T13:16:46.462Z,16.13
2023-05-07T13:17:46.423Z,16.54
2023-05-07T13:18:46.651Z,16.21
2023-05-07T13:19:46.323Z,16.29
2023-05-07T13:20:46.308Z,15.32
2023-05-07T13:21:46.302Z,16.37
2023-05-07T13:22:46.301Z,15.32
2023-05-07T13:23:46.283Z,16.45
2023-05-07T13:24:46.268Z,16.29
2023-05-07T13:25:46.262Z,15.25
2023-05-07T13:26:46.403Z,15.81
2023-05-07T13:27:48.093Z,15.65
2023-05-07T13:28:46.228Z,16.54
2023-05-07T13:29:46.222Z,15.73
2023-05-07T13:30:46.208Z,15.65
2023-05-07T13:31:47.799Z,15.89
2023-05-07T13:32:46.229Z,15.89
2023-05-07T13:33:46.171Z,16.45
2023-05-07T13:34:46.164Z,16.05
2023-05-07T13:35:46.170Z,16.21
2023-05-07T13:36:47.798Z,15.50
2023-05-07T13:37:46.143Z,15.57
2023-05-07T13:38:46.120Z,16.45
2023-05-07T13:39:46.111Z,15.81
2023-05-07T13:40:46.097Z,16.37
2023-05-07T13:41:46.089Z,15.89
2023-05-07T13:42:46.080Z,16.29
2023-05-07T13:43:46.069Z,15.17
2023-05-07T13:44:46.054Z,15.09
2023-05-07T13:45:46.071Z,16.21
2023-05-07T13:46:46.042Z,15.65
2023-05-07T13:47:46.041Z,15.97
2023-05-07T13:48:46.233Z,15.01
2023-05-07T13:49:46.003Z,15.73
2023-05-07T13:50:45.991Z,16.62
2023-05-07T13:51:46.027Z,14.77
2023-05-07T13:52:47.207Z,15.32
2023-05-07T13:53:45.961Z,16.29
2023-05-07T13:54:45.966Z,15.32
2023-05-07T13:55:45.947Z,15.65
2023-05-07T13:56:45.931Z,16.13
2023-05-07T13:57:45.920Z,15.97
2023-05-07T13:58:58.787Z,15.81
2023-05-07T13:59:46.925Z,15.65
2023-05-07T14:00:45.901Z,14.60
2023-05-07T14:01:45.894Z,15.65
2023-05-07T14:02:45.965Z,15.57
2023-05-07T14:03:46.094Z,15.17
2023-05-07T14:04:45.865Z,15.32
2023-05-07T14:05:47.187Z,15.81
2023-05-07T14:06:45.822Z,15.97
2023-05-07T14:07:45.821Z,16.05
2023-05-07T14:08:45.805Z,15.57
2023-05-07T14:09:45.793Z,15.97
2023-05-07T14:10:45.781Z,15.65
2023-05-07T14:11:45.774Z,15.25
2023-05-07T14:12:45.790Z,14.93
2023-05-07T14:13:45.806Z,15.40
2023-05-07T14:14:45.749Z,14.77
2023-05-07T14:15:45.727Z,15.97
2023-05-07T14:16:46.541Z,15.09
2023-05-07T14:17:45.775Z,15.65
2023-05-07T14:18:45.694Z,15.73
2023-05-07T14:19:45.691Z,16.13
2023-05-07T14:20:45.696Z,15.32
2023-05-07T14:21:45.674Z,15.40
2023-05-07T14:22:45.668Z,15.40
2023-05-07T14:23:45.654Z,15.57
2023-05-07T14:24:48.530Z,15.73
2023-05-07T14:25:46.650Z,15.01
2023-05-07T14:26:45.611Z,15.25
2023-05-07T14:27:45.604Z,15.25
2023-05-07T14:28:45.588Z,15.73
2023-05-07T14:29:45.590Z,15.50
2023-05-07T14:30:45.616Z,14.36
2023-05-07T14:31:45.556Z,15.25
2023-05-07T14:32:45.580Z,15.32
2023-05-07T14:33:45.543Z,15.81
2023-05-07T14:34:45.525Z,15.40
2023-05-07T14:35:45.515Z,14.68
2023-05-07T14:36:45.542Z,16.13
2023-05-07T14:37:45.494Z,15.50
2023-05-07T14:38:45.480Z,14.93
2023-05-07T14:40:45.460Z,15.73
2023-05-07T14:41:45.453Z,15.73
2023-05-07T14:42:45.438Z,15.09
2023-05-07T14:43:45.432Z,15.65
2023-05-07T14:44:45.419Z,15.50
2023-05-07T14:45:45.451Z,15.25
2023-05-07T14:46:45.446Z,15.57
2023-05-07T14:47:45.432Z,15.50
2023-05-07T14:48:45.383Z,15.57
2023-05-07T14:49:45.369Z,14.85
2023-05-07T14:50:45.356Z,15.40
2023-05-07T14:51:45.347Z,15.01
2023-05-07T14:52:45.357Z,15.57
2023-05-07T14:53:45.328Z,14.77
2023-05-07T14:54:45.325Z,15.25
2023-05-07T14:55:45.309Z,15.65
2023-05-07T14:56:45.295Z,15.25
2023-05-07T14:57:45.285Z,14.68
2023-05-07T14:58:45.277Z,13.88
2023-05-07T14:59:45.275Z,14.93
2023-05-07T15:00:45.456Z,15.50
2023-05-07T15:01:45.335Z,15.65
2023-05-07T15:02:45.267Z,15.25
2023-05-07T15:03:45.366Z,14.77
2023-05-07T15:04:45.215Z,15.17
2023-05-07T15:05:45.201Z,15.81
2023-05-07T15:06:45.193Z,15.89
2023-05-07T15:07:45.811Z,15.89
2023-05-07T15:08:45.198Z,15.32
2023-05-07T15:09:45.169Z,15.25
2023-05-07T15:10:45.148Z,15.32
2023-05-07T15:11:45.137Z,15.01
2023-05-07T15:12:45.172Z,15.25
2023-05-07T15:13:45.119Z,15.97
2023-05-07T15:14:45.105Z,14.52
2023-05-07T15:15:45.093Z,15.50
2023-05-07T15:16:45.121Z,15.25
2023-05-07T15:17:45.119Z,15.81
2023-05-07T15:18:45.072Z,15.73
2023-05-07T15:19:45.051Z,15.65
2023-05-07T15:20:45.045Z,15.73
2023-05-07T15:21:45.027Z,14.44
2023-05-07T15:22:45.015Z,16.05
2023-05-07T15:23:45.008Z,15.50
2023-05-07T15:24:45.038Z,15.89
2023-05-07T15:25:44.986Z,15.65
2023-05-07T15:26:44.978Z,15.97
2023-05-07T15:27:44.966Z,15.17
2023-05-07T15:28:44.950Z,14.77
2023-05-07T15:29:44.943Z,15.81
2023-05-07T15:30:44.935Z,15.40
2023-05-07T15:31:44.964Z,15.40
2023-05-07T15:32:44.982Z,15.01
2023-05-07T15:33:45.104Z,15.81
2023-05-07T15:34:44.888Z,15.25
2023-05-07T15:35:44.891Z,15.40
2023-05-07T15:36:44.867Z,14.52
2023-05-07T15:37:44.862Z,15.40
2023-05-07T15:38:44.846Z,14.52
2023-05-07T15:39:44.838Z,16.29
2023-05-07T15:40:44.845Z,15.57
2023-05-07T15:41:44.815Z,15.73
2023-05-07T15:42:44.824Z,15.17
2023-05-07T15:43:45.012Z,14.93
2023-05-07T15:44:44.786Z,14.52
2023-05-07T15:45:44.810Z,16.13
2023-05-07T15:46:44.770Z,15.73
2023-05-07T15:47:44.795Z,15.73
2023-05-07T15:48:44.780Z,15.40
2023-05-07T15:49:44.741Z,15.57
2023-05-07T15:50:44.717Z,15.17
2023-05-07T15:51:44.715Z,15.57
2023-05-07T15:52:44.701Z,15.73
2023-05-07T15:53:44.690Z,15.73
2023-05-07T15:54:44.679Z,16.13
2023-05-07T15:55:44.670Z,15.65
2023-05-07T15:56:44.686Z,15.65
2023-05-07T15:57:44.646Z,15.17
2023-05-07T15:58:44.643Z,16.62
2023-05-07T15:59:44.624Z,15.40
2023-05-07T16:00:44.643Z,16.29
2023-05-07T16:01:44.722Z,16.37
2023-05-07T16:02:44.697Z,13.80
2023-05-07T16:03:44.700Z,15.89
2023-05-07T16:04:44.581Z,15.09
2023-05-07T16:05:44.567Z,15.50
2023-05-07T16:06:44.557Z,15.65
2023-05-07T16:07:44.557Z,16.21
2023-05-07T16:08:44.552Z,15.73
2023-05-07T16:09:44.526Z,17.03
2023-05-07T16:10:44.520Z,15.57
2023-05-07T16:11:44.520Z,15.50
2023-05-07T16:12:44.736Z,15.89
2023-05-07T16:13:44.481Z,16.21
2023-05-07T16:14:44.470Z,16.37
2023-05-07T16:15:44.460Z,16.29
2023-05-07T16:16:44.469Z,15.25
2023-05-07T16:17:44.442Z,16.13
2023-05-07T16:18:44.427Z,16.29
2023-05-07T16:19:44.415Z,15.89
2023-05-07T16:20:44.401Z,15.97
2023-05-07T16:21:44.393Z,16.05
2023-05-07T16:22:44.397Z,15.73
2023-05-07T16:23:44.379Z,16.37
2023-05-07T16:24:44.425Z,17.11
2023-05-07T16:25:44.350Z,17.35
2023-05-07T16:26:44.337Z,15.97
2023-05-07T16:27:44.328Z,16.05
2023-05-07T16:28:44.338Z,15.89
2023-05-07T16:29:44.306Z,16.37
2023-05-07T16:30:44.341Z,16.62
2023-05-07T16:31:44.285Z,16.70
2023-05-07T16:32:44.310Z,17.03
2023-05-07T16:33:44.258Z,16.21
2023-05-07T16:34:44.248Z,15.65
2023-05-07T16:35:44.243Z,15.17
2023-05-07T16:36:44.225Z,15.50
2023-05-07T16:37:44.212Z,15.97
2023-05-07T16:38:44.202Z,15.97
2023-05-07T16:39:44.207Z,16.45
2023-05-07T16:40:44.197Z,16.45
2023-05-07T16:41:44.172Z,16.21
2023-05-07T16:42:44.380Z,16.21